Time;durP1;ratioP1;P1;durP2;ratioP2;P2;SDS_P1;SDS_P2;PMS_P1;PMS_P2;Temp;Humidity;BMP_temperature;BMP_pressure;BME280_temperature;BME280_humidity;BME280_pressure;Samples;Min_cycle;Max_cycle;Signal;HPM_P1;HPM_P2
2023/03/12 00:01:23;;;;;;;;;;;1.10;99.90;;;;;;4861244;29;19932;-68
2023/03/12 00:03:49;;;;;;;;;;;1.10;99.90;;;;;;4861388;29;19984;-70
2023/03/12 00:06:15;;;;;;;;;;;1.40;99.90;;;;;;4861067;29;19928;-68
2023/03/12 00:08:41;;;;;;;;;;;1.10;99.90;;;;;;4877797;29;20336;-69
2023/03/12 00:11:07;;;;;;;;;;;1.10;99.90;;;;;;4860973;29;19979;-69
2023/03/12 00:13:33;;;;;;;;;;;1.00;99.90;;;;;;4846089;29;20325;-69
2023/03/12 00:16:05;;;;;;;;;;;1.00;99.90;;;;;;4877226;29;19935;-69
2023/03/12 00:18:31;;;;;;;;;;;1.00;99.90;;;;;;4877794;29;19932;-68
2023/03/12 00:20:57;;;;;;;;;;;1.00;99.90;;;;;;4860729;29;19935;-68
2023/03/12 00:23:22;;;;;;;;;;;1.00;99.90;;;;;;4877674;29;19928;-69
2023/03/12 00:25:48;;;;;;;;;;;1.00;99.90;;;;;;4877504;29;19928;-70
2023/03/12 00:28:13;;;;;;;;;;;1.80;99.90;;;;;;4876970;29;19931;-67
2023/03/12 00:30:39;;;;;;;;;;;1.00;99.90;;;;;;4877847;29;19928;-67
2023/03/12 00:33:05;;;;;;;;;;;1.00;99.90;;;;;;4861035;29;20372;-68
2023/03/12 00:35:31;;;;;;;;;;;1.10;99.90;;;;;;4861456;29;20459;-69
2023/03/12 00:37:57;;;;;;;;;;;1.10;99.90;;;;;;4860190;29;19931;-73
2023/03/12 00:40:22;;;;;;;;;;;1.00;99.90;;;;;;4860575;29;19928;-67
2023/03/12 00:42:48;;;;;;;;;;;1.00;99.90;;;;;;4846771;29;19927;-67
2023/03/12 00:45:13;;;;;;;;;;;1.10;99.90;;;;;;4864175;29;19936;-67
2023/03/12 00:47:39;;;;;;;;;;;1.00;99.90;;;;;;4881007;29;19935;-68
2023/03/12 00:50:05;;;;;;;;;;;1.00;99.90;;;;;;4864035;29;20010;-69
2023/03/12 00:52:30;;;;;;;;;;;1.00;99.90;;;;;;4864317;29;19932;-67
2023/03/12 00:54:57;;;;;;;;;;;1.00;99.90;;;;;;4880983;29;20145;-68
2023/03/12 00:57:23;;;;;;;;;;;1.00;99.90;;;;;;4864056;29;20015;-67
2023/03/12 00:59:49;;;;;;;;;;;0.90;99.90;;;;;;4864293;29;20024;-68
2023/03/12 01:02:15;;;;;;;;;;;0.90;99.90;;;;;;4880433;29;19932;-68
2023/03/12 01:04:40;;;;;;;;;;;0.90;99.90;;;;;;4864337;29;19928;-68
2023/03/12 01:07:06;;;;;;;;;;;1.00;99.90;;;;;;4864059;29;20022;-68
2023/03/12 01:09:31;;;;;;;;;;;0.90;99.90;;;;;;4864035;29;19960;-68
2023/03/12 01:11:57;;;;;;;;;;;0.90;99.90;;;;;;4880908;29;19928;-68
2023/03/12 01:14:23;;;;;;;;;;;0.90;99.90;;;;;;4880321;29;19990;-69
2023/03/12 01:16:48;;;;;;;;;;;0.90;99.90;;;;;;4864019;29;19928;-68
2023/03/12 01:19:14;;;;;;;;;;;0.90;99.90;;;;;;4879985;29;19927;-67
2023/03/12 01:21:40;;;;;;;;;;;1.30;99.90;;;;;;4863945;29;20015;-67
2023/03/12 01:24:05;;;;;;;;;;;0.80;99.90;;;;;;4863613;29;19935;-67
2023/03/12 01:26:31;;;;;;;;;;;0.80;99.90;;;;;;4880465;29;19931;-68
2023/03/12 01:28:57;;;;;;;;;;;1.10;99.90;;;;;;4880515;29;19932;-67
2023/03/12 01:31:22;;;;;;;;;;;0.80;99.90;;;;;;4848321;29;19923;-68
2023/03/12 01:33:49;;;;;;;;;;;0.80;99.90;;;;;;4880539;29;19935;-68
2023/03/12 01:36:19;;;;;;;;;;;0.80;99.90;;;;;;4863672;29;19928;-68
2023/03/12 01:38:45;;;;;;;;;;;0.80;99.90;;;;;;4863892;29;20023;-68
2023/03/12 01:41:10;;;;;;;;;;;0.70;99.90;;;;;;4863127;29;20467;-68
2023/03/12 01:43:37;;;;;;;;;;;0.70;99.90;;;;;;4879865;29;19932;-68
2023/03/12 01:46:22;;;;;;;;;;;1.10;99.90;;;;;;4880208;29;19932;-69
2023/03/12 01:48:57;;;;;;;;;;;0.70;99.90;;;;;;4863458;29;20181;-68
2023/03/12 01:51:25;;;;;;;;;;;0.70;99.90;;;;;;4863312;29;20296;-68
2023/03/12 01:53:54;;;;;;;;;;;0.70;99.90;;;;;;4862855;29;20034;-68
2023/03/12 01:56:20;;;;;;;;;;;0.80;99.90;;;;;;4862657;29;20341;-68
2023/03/12 01:58:49;;;;;;;;;;;0.80;99.90;;;;;;4879957;29;19927;-68
2023/03/12 02:01:16;;;;;;;;;;;0.90;99.90;;;;;;4879261;29;19927;-68
2023/03/12 02:03:43;;;;;;;;;;;0.90;99.90;;;;;;4863404;29;20336;-67
2023/03/12 02:06:12;;;;;;;;;;;0.90;99.90;;;;;;4832348;29;19976;-72
2023/03/12 02:08:40;;;;;;;;;;;1.00;99.90;;;;;;4862816;29;19931;-67
2023/03/12 02:11:05;;;;;;;;;;;1.10;99.90;;;;;;4863207;29;19928;-68
2023/03/12 02:13:31;;;;;;;;;;;1.10;99.90;;;;;;4879193;29;20318;-67
2023/03/12 02:15:57;;;;;;;;;;;1.10;99.90;;;;;;4862945;29;19935;-68
2023/03/12 02:18:22;;;;;;;;;;;1.20;99.90;;;;;;4878955;29;19983;-68
2023/03/12 02:20:54;;;;;;;;;;;1.20;99.90;;;;;;4863108;29;20010;-68
2023/03/12 02:23:32;;;;;;;;;;;1.20;99.90;;;;;;4879030;29;20022;-69
2023/03/12 02:25:58;;;;;;;;;;;1.20;99.90;;;;;;4862927;29;20371;-68
2023/03/12 02:28:26;;;;;;;;;;;1.30;99.90;;;;;;4862332;29;20014;-68
2023/03/12 02:30:55;;;;;;;;;;;1.30;99.90;;;;;;4862809;29;19931;-68
2023/03/12 02:33:21;;;;;;;;;;;1.30;99.90;;;;;;4878980;29;20022;-69
2023/03/12 02:35:47;;;;;;;;;;;1.30;99.90;;;;;;4862920;29;19975;-69
2023/03/12 02:38:31;;;;;;;;;;;1.40;99.90;;;;;;4862262;29;19935;-71
2023/03/12 02:40:59;;;;;;;;;;;1.40;99.90;;;;;;4879198;29;20063;-68
2023/03/12 02:43:25;;;;;;;;;;;1.40;99.90;;;;;;4862226;29;20381;-69
2023/03/12 02:45:50;;;;;;;;;;;1.50;99.90;;;;;;4862041;29;20018;-68
2023/03/12 02:48:16;;;;;;;;;;;1.40;99.90;;;;;;4862164;29;19932;-69
2023/03/12 02:50:41;;;;;;;;;;;1.50;99.90;;;;;;4862478;29;19928;-69
2023/03/12 02:53:07;;;;;;;;;;;1.50;99.90;;;;;;4861885;29;19928;-67
2023/03/12 02:55:33;;;;;;;;;;;1.50;99.90;;;;;;4877488;29;20532;-69
2023/03/12 02:57:58;;;;;;;;;;;1.50;99.90;;;;;;4862372;29;19979;-70
2023/03/12 03:00:24;;;;;;;;;;;1.60;99.90;;;;;;4878543;29;20284;-69
2023/03/12 03:02:49;;;;;;;;;;;1.60;99.90;;;;;;4862356;29;19928;-68
2023/03/12 03:05:15;;;;;;;;;;;1.60;99.90;;;;;;4862131;29;20437;-73
2023/03/12 03:07:41;;;;;;;;;;;1.60;99.90;;;;;;4878690;29;19982;-69
2023/03/12 03:10:07;;;;;;;;;;;1.70;99.90;;;;;;4862180;29;19928;-69
2023/03/12 03:12:33;;;;;;;;;;;1.70;99.90;;;;;;4877822;29;19932;-68
2023/03/12 03:14:59;;;;;;;;;;;1.70;99.90;;;;;;4861913;29;20281;-69
2023/03/12 03:17:25;;;;;;;;;;;1.70;99.90;;;;;;4861512;29;19980;-71
2023/03/12 03:19:51;;;;;;;;;;;1.70;99.90;;;;;;4862172;29;19965;-69
2023/03/12 03:22:17;;;;;;;;;;;1.70;99.90;;;;;;4846474;29;19934;-73
2023/03/12 03:24:42;;;;;;;;;;;1.70;99.90;;;;;;4861886;29;19928;-70
2023/03/12 03:27:08;;;;;;;;;;;2.00;99.90;;;;;;4878509;29;20432;-69
2023/03/12 03:29:34;;;;;;;;;;;1.70;99.90;;;;;;4846043;29;20229;-69
2023/03/12 03:31:59;;;;;;;;;;;1.70;99.90;;;;;;4862068;29;19983;-69
2023/03/12 03:34:25;;;;;;;;;;;1.70;99.90;;;;;;4877939;29;19927;-68
2023/03/12 03:36:50;;;;;;;;;;;1.70;99.90;;;;;;4878215;29;19932;-70
2023/03/12 03:39:16;;;;;;;;;;;1.70;99.90;;;;;;4877407;29;19928;-72
2023/03/12 03:41:42;;;;;;;;;;;1.80;99.90;;;;;;4861621;29;19935;-69
2023/03/12 03:44:07;;;;;;;;;;;1.60;99.90;;;;;;4861153;29;19935;-70
2023/03/12 03:46:36;;;;;;;;;;;1.60;99.90;;;;;;4876956;29;20458;-69
2023/03/12 03:49:01;;;;;;;;;;;2.40;99.90;;;;;;4861753;29;19984;-68
2023/03/12 03:51:27;;;;;;;;;;;1.80;99.90;;;;;;4877992;29;19928;-68
2023/03/12 03:53:53;;;;;;;;;;;1.60;99.90;;;;;;4861490;29;20296;-68
2023/03/12 03:56:19;;;;;;;;;;;1.60;99.90;;;;;;4861781;29;19928;-68
2023/03/12 03:58:44;;;;;;;;;;;1.60;99.90;;;;;;4861224;29;19975;-69
2023/03/12 04:01:12;;;;;;;;;;;1.60;99.90;;;;;;4878361;29;19934;-69
2023/03/12 04:03:37;;;;;;;;;;;1.60;99.90;;;;;;4877878;29;19928;-69
2023/03/12 04:06:04;;;;;;;;;;;1.60;99.90;;;;;;4846393;29;19935;-68
2023/03/12 04:08:31;;;;;;;;;;;1.60;99.90;;;;;;4861123;29;20384;-69
2023/03/12 04:10:57;;;;;;;;;;;1.60;99.90;;;;;;4861774;29;19928;-68
2023/03/12 04:13:22;;;;;;;;;;;2.10;99.90;;;;;;4878369;29;19935;-68
2023/03/12 04:15:49;;;;;;;;;;;1.70;99.90;;;;;;4861417;29;19928;-69
2023/03/12 04:18:15;;;;;;;;;;;1.70;99.90;;;;;;4862553;29;19928;-69
2023/03/12 04:20:41;;;;;;;;;;;1.70;99.90;;;;;;4864873;29;19931;-68
2023/03/12 04:23:07;;;;;;;;;;;1.70;99.90;;;;;;4881603;29;19978;-69
2023/03/12 04:25:32;;;;;;;;;;;1.70;99.90;;;;;;4849255;29;20427;-69
2023/03/12 04:27:58;;;;;;;;;;;1.70;99.90;;;;;;4880161;29;19928;-69
2023/03/12 04:30:24;;;;;;;;;;;1.70;99.90;;;;;;4880407;29;19927;-68
2023/03/12 04:32:49;;;;;;;;;;;1.70;99.90;;;;;;4849148;29;20019;-68
2023/03/12 04:35:15;;;;;;;;;;;1.70;99.90;;;;;;4881562;29;19969;-69
2023/03/12 04:37:40;;;;;;;;;;;1.70;99.90;;;;;;4864576;29;20380;-67
2023/03/12 04:40:08;;;;;;;;;;;2.60;99.90;;;;;;4864964;29;19928;-68
2023/03/12 04:42:34;;;;;;;;;;;1.70;99.90;;;;;;4864732;29;19928;-69
2023/03/12 04:45:00;;;;;;;;;;;1.70;99.90;;;;;;4880096;29;19928;-69
2023/03/12 04:47:25;;;;;;;;;;;1.70;99.90;;;;;;4880776;29;19928;-69
2023/03/12 04:49:51;;;;;;;;;;;1.60;99.90;;;;;;4864010;29;19927;-68
2023/03/12 04:52:16;;;;;;;;;;;1.70;99.90;;;;;;4881195;29;20019;-70
2023/03/12 04:54:42;;;;;;;;;;;1.60;99.90;;;;;;4863721;29;20018;-70
2023/03/12 04:57:08;;;;;;;;;;;1.60;99.90;;;;;;4848993;29;20299;-69
2023/03/12 04:59:34;;;;;;;;;;;1.60;99.90;;;;;;4848908;29;19970;-69
2023/03/12 05:01:59;;;;;;;;;;;1.60;99.90;;;;;;4864530;29;20113;-70
2023/03/12 05:04:25;;;;;;;;;;;1.60;99.90;;;;;;4864578;29;19928;-68
2023/03/12 05:06:51;;;;;;;;;;;1.60;99.90;;;;;;4848595;29;19990;-68
2023/03/12 05:09:16;;;;;;;;;;;1.60;99.90;;;;;;4848601;29;19934;-70
2023/03/12 05:11:42;;;;;;;;;;;1.50;99.90;;;;;;4879827;29;19999;-69
2023/03/12 05:14:09;;;;;;;;;;;1.60;99.90;;;;;;4848716;29;19928;-68
2023/03/12 05:16:35;;;;;;;;;;;1.50;99.90;;;;;;4880180;29;19928;-69
2023/03/12 05:19:01;;;;;;;;;;;2.00;99.90;;;;;;4863699;29;19931;-69
2023/03/12 05:21:26;;;;;;;;;;;1.50;99.90;;;;;;4848733;29;20018;-69
2023/03/12 05:23:52;;;;;;;;;;;1.50;99.90;;;;;;4863805;29;20076;-68
2023/03/12 05:26:19;;;;;;;;;;;1.50;99.90;;;;;;4848741;29;20192;-69
2023/03/12 05:28:45;;;;;;;;;;;1.40;99.90;;;;;;4879875;29;19935;-68
2023/03/12 05:31:11;;;;;;;;;;;1.40;99.90;;;;;;4863087;29;20027;-67
2023/03/12 05:33:37;;;;;;;;;;;1.50;99.90;;;;;;4879890;29;19931;-69
2023/03/12 05:36:02;;;;;;;;;;;1.50;99.90;;;;;;4863763;29;20431;-68
2023/03/12 05:38:28;;;;;;;;;;;1.50;99.90;;;;;;4848383;29;19939;-68
2023/03/12 05:40:55;;;;;;;;;;;1.50;99.90;;;;;;4879738;29;19927;-70
2023/03/12 05:43:20;;;;;;;;;;;1.60;99.90;;;;;;4880250;29;19975;-69
2023/03/12 05:45:46;;;;;;;;;;;1.40;99.90;;;;;;4879390;29;19928;-68
2023/03/12 05:48:12;;;;;;;;;;;1.50;99.90;;;;;;4863692;29;19983;-69
2023/03/12 05:50:37;;;;;;;;;;;1.50;99.90;;;;;;4862915;29;19928;-72
2023/03/12 05:53:03;;;;;;;;;;;1.50;99.90;;;;;;4879879;29;19934;-68
2023/03/12 05:55:28;;;;;;;;;;;1.50;99.90;;;;;;4879978;29;19928;-68
2023/03/12 05:57:54;;;;;;;;;;;1.50;99.90;;;;;;4863035;29;19946;-69
2023/03/12 06:00:20;;;;;;;;;;;1.50;99.90;;;;;;4879720;29;19928;-69
2023/03/12 06:02:46;;;;;;;;;;;1.50;99.90;;;;;;4879557;29;19928;-68
2023/03/12 06:05:11;;;;;;;;;;;2.20;99.90;;;;;;4863239;29;19935;-71
2023/03/12 06:07:37;;;;;;;;;;;1.60;99.90;;;;;;4832609;29;19934;-69
2023/03/12 06:10:03;;;;;;;;;;;2.00;99.90;;;;;;4862535;29;19971;-69
2023/03/12 06:12:28;;;;;;;;;;;1.60;99.90;;;;;;4863223;29;19935;-68
2023/03/12 06:14:54;;;;;;;;;;;1.70;99.90;;;;;;4847441;29;20412;-70
2023/03/12 06:17:19;;;;;;;;;;;1.70;99.90;;;;;;4847634;29;20046;-68
2023/03/12 06:19:49;;;;;;;;;;;1.70;99.90;;;;;;4862718;29;19928;-70
2023/03/12 06:22:14;;;;;;;;;;;1.70;99.90;;;;;;4863022;29;19931;-69
2023/03/12 06:24:41;;;;;;;;;;;1.70;99.90;;;;;;4877417;29;19928;-73
2023/03/12 06:27:07;;;;;;;;;;;1.70;99.90;;;;;;4862854;29;19931;-69
2023/03/12 06:29:32;;;;;;;;;;;2.20;99.90;;;;;;4879380;29;19975;-68
2023/03/12 06:31:58;;;;;;;;;;;1.70;99.90;;;;;;4862511;29;19934;-69
2023/03/12 06:34:23;;;;;;;;;;;1.70;99.90;;;;;;4862801;29;19928;-69
2023/03/12 06:36:49;;;;;;;;;;;1.70;99.90;;;;;;4862257;29;20376;-69
2023/03/12 06:39:17;;;;;;;;;;;1.80;99.90;;;;;;4862721;29;19999;-68
2023/03/12 06:41:43;;;;;;;;;;;2.00;99.90;;;;;;4862047;29;19928;-73
2023/03/12 06:44:09;;;;;;;;;;;1.80;99.90;;;;;;4879115;29;19938;-69
2023/03/12 06:46:35;;;;;;;;;;;1.80;99.90;;;;;;4847216;29;20355;-69
2023/03/12 06:49:01;;;;;;;;;;;1.80;99.90;;;;;;4878293;29;19932;-68
2023/03/12 06:51:27;;;;;;;;;;;1.80;99.90;;;;;;4878978;29;20319;-69
2023/03/12 06:53:52;;;;;;;;;;;1.80;99.90;;;;;;4846389;29;19928;-71
2023/03/12 06:56:18;;;;;;;;;;;1.80;99.90;;;;;;4877851;29;20015;-69
2023/03/12 06:58:44;;;;;;;;;;;1.80;99.90;;;;;;4862537;29;20019;-70
2023/03/12 07:01:09;;;;;;;;;;;2.00;99.90;;;;;;4861901;29;20067;-69
2023/03/12 07:03:35;;;;;;;;;;;2.00;99.90;;;;;;4862448;29;19931;-69
2023/03/12 07:06:00;;;;;;;;;;;1.90;99.90;;;;;;4831479;29;19932;-70
2023/03/12 07:08:29;;;;;;;;;;;1.90;99.90;;;;;;4878683;29;20364;-70
2023/03/12 07:10:56;;;;;;;;;;;1.90;99.90;;;;;;4861705;29;19991;-70
2023/03/12 07:13:21;;;;;;;;;;;2.00;99.90;;;;;;4862303;29;20273;-71
2023/03/12 07:15:47;;;;;;;;;;;2.00;99.90;;;;;;4861746;29;19934;-75
2023/03/12 07:18:13;;;;;;;;;;;2.00;99.90;;;;;;4846533;29;19928;-71
2023/03/12 07:20:40;;;;;;;;;;;2.00;99.90;;;;;;4862008;29;19928;-70
2023/03/12 07:23:05;;;;;;;;;;;2.00;99.90;;;;;;4878211;29;20331;-69
2023/03/12 07:25:35;;;;;;;;;;;2.00;99.90;;;;;;4862036;29;20014;-69
2023/03/12 07:28:00;;;;;;;;;;;2.00;99.90;;;;;;4861324;29;19983;-70
2023/03/12 07:30:26;;;;;;;;;;;1.90;99.90;;;;;;4877555;29;19991;-70
2023/03/12 07:32:51;;;;;;;;;;;1.90;99.90;;;;;;4846325;29;20025;-73
2023/03/12 07:35:17;;;;;;;;;;;2.20;99.90;;;;;;4878427;29;19982;-70
2023/03/12 07:37:42;;;;;;;;;;;1.80;99.90;;;;;;4861677;29;20303;-71
2023/03/12 07:40:09;;;;;;;;;;;1.80;99.90;;;;;;4861546;29;20273;-70
2023/03/12 07:42:34;;;;;;;;;;;1.70;99.90;;;;;;4862022;29;19928;-74
2023/03/12 07:45:00;;;;;;;;;;;1.70;99.90;;;;;;4876830;29;19931;-71
2023/03/12 07:47:26;;;;;;;;;;;1.70;99.90;;;;;;4877970;29;19934;-68
2023/03/12 07:49:52;;;;;;;;;;;1.70;99.90;;;;;;4876825;29;19982;-74
2023/03/12 07:52:19;;;;;;;;;;;1.60;99.90;;;;;;4861929;29;19927;-70
2023/03/12 07:54:44;;;;;;;;;;;1.60;99.90;;;;;;4865285;29;19935;-72
2023/03/12 07:57:10;;;;;;;;;;;1.60;99.90;;;;;;4865366;29;20007;-69
2023/03/12 07:59:36;;;;;;;;;;;1.70;99.90;;;;;;4880605;29;20381;-70
2023/03/12 08:02:01;;;;;;;;;;;1.50;99.90;;;;;;4865003;29;19927;-68
2023/03/12 08:04:27;;;;;;;;;;;1.50;99.90;;;;;;4882106;29;20345;-72
2023/03/12 08:06:52;;;;;;;;;;;1.50;99.90;;;;;;4865568;29;19928;-70
2023/03/12 08:09:18;;;;;;;;;;;1.50;99.90;;;;;;4881411;29;20394;-69
2023/03/12 08:11:43;;;;;;;;;;;1.40;99.90;;;;;;4865744;29;19927;-70
2023/03/12 08:14:09;;;;;;;;;;;1.40;99.90;;;;;;4849849;29;19928;-69
2023/03/12 08:16:35;;;;;;;;;;;1.30;99.90;;;;;;4865498;29;20014;-70
2023/03/12 08:19:00;;;;;;;;;;;1.30;99.90;;;;;;4864968;29;19932;-69
2023/03/12 08:21:26;;;;;;;;;;;1.30;99.90;;;;;;4881681;29;20332;-71
2023/03/12 08:23:51;;;;;;;;;;;1.40;99.90;;;;;;4881773;29;19931;-70
2023/03/12 08:26:17;;;;;;;;;;;1.30;99.90;;;;;;4849423;29;19924;-70
2023/03/12 08:28:43;;;;;;;;;;;1.30;99.90;;;;;;4881669;29;19928;-69
2023/03/12 08:31:08;;;;;;;;;;;1.30;99.90;;;;;;4864523;29;19934;-68
2023/03/12 08:33:34;;;;;;;;;;;1.80;99.90;;;;;;4881436;29;19927;-71
2023/03/12 08:36:00;;;;;;;;;;;1.30;99.90;;;;;;4864805;29;20004;-75
2023/03/12 08:38:26;;;;;;;;;;;1.30;99.90;;;;;;4881324;29;20299;-69
2023/03/12 08:40:56;;;;;;;;;;;1.30;99.90;;;;;;4865175;29;19967;-69
2023/03/12 08:43:22;;;;;;;;;;;1.30;99.90;;;;;;4864497;29;19928;-69
2023/03/12 08:45:52;;;;;;;;;;;1.40;99.90;;;;;;4881038;29;19952;-71
2023/03/12 08:48:17;;;;;;;;;;;1.40;99.90;;;;;;4880817;29;19928;-70
2023/03/12 08:50:43;;;;;;;;;;;1.40;99.90;;;;;;4881247;29;20351;-69
2023/03/12 08:53:08;;;;;;;;;;;1.60;99.90;;;;;;4860776;29;19932;-70
2023/03/12 08:55:34;;;;;;;;;;;1.40;99.90;;;;;;4861651;29;19932;-69
2023/03/12 08:57:59;;;;;;;;;;;1.40;99.90;;;;;;4876615;29;19970;-70
2023/03/12 09:00:25;;;;;;;;;;;1.50;99.90;;;;;;4860971;29;19928;-69
2023/03/12 09:02:52;;;;;;;;;;;1.50;99.90;;;;;;4862226;29;20396;-70
2023/03/12 09:05:18;;;;;;;;;;;1.50;99.90;;;;;;4862088;29;19928;-68
2023/03/12 09:07:43;;;;;;;;;;;1.60;99.90;;;;;;4861534;29;20139;-70
2023/03/12 09:10:09;;;;;;;;;;;1.60;99.90;;;;;;4876220;29;19934;-70
2023/03/12 09:12:35;;;;;;;;;;;1.60;99.90;;;;;;4862014;29;20010;-69
2023/03/12 09:15:00;;;;;;;;;;;1.60;99.90;;;;;;4861353;29;19932;-69
2023/03/12 09:17:27;;;;;;;;;;;1.50;99.90;;;;;;4861678;29;20358;-68
2023/03/12 09:19:53;;;;;;;;;;;1.80;99.90;;;;;;4862201;29;19928;-67
2023/03/12 09:22:18;;;;;;;;;;;1.60;99.90;;;;;;4860298;29;20432;-68
2023/03/12 09:24:44;;;;;;;;;;;1.50;99.90;;;;;;4861031;29;19935;-69
2023/03/12 09:27:10;;;;;;;;;;;1.50;99.90;;;;;;4860656;29;19935;-68
2023/03/12 09:29:36;;;;;;;;;;;1.60;99.90;;;;;;4860821;29;19928;-68
2023/03/12 09:32:01;;;;;;;;;;;1.50;99.90;;;;;;4860999;29;20436;-68
2023/03/12 09:34:27;;;;;;;;;;;1.50;99.90;;;;;;4875467;29;20023;-69
2023/03/12 09:36:52;;;;;;;;;;;1.50;99.90;;;;;;4860819;29;19935;-68
2023/03/12 09:39:19;;;;;;;;;;;1.50;99.90;;;;;;4860371;29;20397;-67
2023/03/12 09:41:46;;;;;;;;;;;1.50;99.90;;;;;;4876094;29;20403;-68
2023/03/12 09:44:30;;;;;;;;;;;1.50;99.90;;;;;;4860490;29;19928;-69
2023/03/12 09:46:59;;;;;;;;;;;1.60;99.90;;;;;;4860666;29;19928;-68
2023/03/12 09:49:30;;;;;;;;;;;1.60;99.90;;;;;;4861033;29;20385;-69
2023/03/12 09:51:57;;;;;;;;;;;1.60;99.90;;;;;;4875590;29;20444;-69
2023/03/12 09:54:38;;;;;;;;;;;1.60;99.90;;;;;;4875299;29;19976;-69
2023/03/12 09:57:08;;;;;;;;;;;1.70;99.90;;;;;;4860391;29;19932;-69
2023/03/12 09:59:35;;;;;;;;;;;1.70;99.90;;;;;;4875887;29;19935;-68
2023/03/12 10:02:03;;;;;;;;;;;1.80;99.90;;;;;;4860442;29;19938;-70
2023/03/12 10:04:37;;;;;;;;;;;1.80;99.90;;;;;;4861106;29;19932;-69
2023/03/12 10:07:10;;;;;;;;;;;1.80;99.90;;;;;;4875655;29;19971;-69
2023/03/12 10:09:54;;;;;;;;;;;1.80;99.90;;;;;;4861131;29;19929;-69
2023/03/12 10:12:35;;;;;;;;;;;1.80;99.90;;;;;;4859950;29;19936;-68
2023/03/12 10:15:00;;;;;;;;;;;1.80;99.90;;;;;;4859619;29;20414;-71
2023/03/12 10:17:36;;;;;;;;;;;1.90;99.90;;;;;;4859409;29;19928;-69
2023/03/12 10:20:15;;;;;;;;;;;1.80;99.90;;;;;;4859884;29;19928;-68
2023/03/12 10:22:47;;;;;;;;;;;2.00;99.90;;;;;;4860104;29;19932;-69
2023/03/12 10:25:28;;;;;;;;;;;1.90;99.90;;;;;;4859811;29;19975;-74
2023/03/12 10:27:56;;;;;;;;;;;1.90;99.90;;;;;;4859723;29;19997;-69
2023/03/12 10:30:24;;;;;;;;;;;2.00;99.90;;;;;;4859061;29;19928;-68
2023/03/12 10:33:03;;;;;;;;;;;2.00;99.90;;;;;;4859603;29;20287;-68
2023/03/12 10:35:31;;;;;;;;;;;2.00;99.90;;;;;;4860435;29;19936;-70
2023/03/12 10:37:58;;;;;;;;;;;2.10;99.90;;;;;;4860555;29;19976;-70
2023/03/12 10:40:28;;;;;;;;;;;2.30;99.90;;;;;;4860357;29;20115;-68
2023/03/12 10:42:54;;;;;;;;;;;2.10;99.90;;;;;;4875134;29;19932;-69
2023/03/12 10:45:24;;;;;;;;;;;2.20;99.90;;;;;;4859439;29;19929;-68
2023/03/12 10:47:51;;;;;;;;;;;2.50;99.90;;;;;;4859484;29;20380;-73
2023/03/12 10:50:25;;;;;;;;;;;2.20;99.90;;;;;;4874678;29;19974;-68
2023/03/12 10:52:52;;;;;;;;;;;2.20;99.90;;;;;;4862487;29;19928;-67
2023/03/12 10:55:18;;;;;;;;;;;2.30;99.90;;;;;;4862186;29;19983;-69
2023/03/12 10:57:43;;;;;;;;;;;2.30;99.90;;;;;;4862288;29;19974;-68
2023/03/12 11:00:16;;;;;;;;;;;2.30;99.90;;;;;;4862039;29;20410;-70
2023/03/12 11:02:44;;;;;;;;;;;2.30;99.90;;;;;;4862684;29;19988;-72
2023/03/12 11:05:27;;;;;;;;;;;2.40;99.90;;;;;;4878883;29;19995;-69
2023/03/12 11:07:53;;;;;;;;;;;2.40;99.90;;;;;;4862284;29;19928;-70
2023/03/12 11:10:20;;;;;;;;;;;2.40;99.90;;;;;;4877780;29;19956;-71
2023/03/12 11:12:57;;;;;;;;;;;2.40;99.90;;;;;;4846866;29;19928;-70
2023/03/12 11:15:24;;;;;;;;;;;2.40;99.90;;;;;;4878621;29;19927;-69
2023/03/12 11:17:50;;;;;;;;;;;2.40;99.90;;;;;;4862446;29;20026;-70
2023/03/12 11:20:28;;;;;;;;;;;2.50;99.90;;;;;;4861891;29;20530;-71
2023/03/12 11:22:54;;;;;;;;;;;2.50;99.90;;;;;;4846931;29;19932;-70
2023/03/12 11:25:23;;;;;;;;;;;2.70;99.90;;;;;;4846887;29;19951;-70
2023/03/12 11:27:51;;;;;;;;;;;2.70;99.90;;;;;;4860667;29;20107;-68
2023/03/12 11:30:20;;;;;;;;;;;2.60;99.90;;;;;;4846826;29;19928;-70
2023/03/12 11:32:48;;;;;;;;;;;2.70;99.90;;;;;;4878746;29;19935;-70
2023/03/12 11:35:14;;;;;;;;;;;2.70;99.90;;;;;;4862182;29;19927;-71
2023/03/12 11:37:43;;;;;;;;;;;2.80;99.90;;;;;;4846753;29;19995;-70
2023/03/12 11:40:12;;;;;;;;;;;2.80;99.90;;;;;;4846762;29;19932;-71
2023/03/12 11:42:37;;;;;;;;;;;2.90;99.90;;;;;;4846183;29;20452;-71
2023/03/12 11:45:22;;;;;;;;;;;2.80;99.90;;;;;;4846896;29;19967;-70
2023/03/12 11:47:47;;;;;;;;;;;2.90;99.90;;;;;;4846336;29;19984;-70
2023/03/12 11:50:31;;;;;;;;;;;2.90;99.90;;;;;;4861794;29;19928;-70
2023/03/12 11:53:09;;;;;;;;;;;3.00;99.90;;;;;;4861707;29;20022;-69
2023/03/12 11:55:44;;;;;;;;;;;3.00;99.90;;;;;;4876538;29;20428;-71
2023/03/12 11:58:18;;;;;;;;;;;3.00;99.90;;;;;;4861805;29;19928;-69
2023/03/12 12:00:57;;;;;;;;;;;3.10;99.90;;;;;;4861422;29;20401;-69
2023/03/12 12:03:26;;;;;;;;;;;3.10;99.90;;;;;;4861713;29;19935;-70
2023/03/12 12:06:05;;;;;;;;;;;3.20;99.90;;;;;;4878465;29;19928;-72
2023/03/12 12:08:42;;;;;;;;;;;3.30;99.90;;;;;;4878324;29;19928;-72
2023/03/12 12:11:13;;;;;;;;;;;3.40;99.90;;;;;;4846400;29;19928;-72
2023/03/12 12:13:57;;;;;;;;;;;3.40;99.90;;;;;;4861688;29;19988;-71
2023/03/12 12:16:46;;;;;;;;;;;3.50;99.90;;;;;;4861659;29;19927;-71
2023/03/12 12:19:26;;;;;;;;;;;3.60;99.90;;;;;;4841225;29;20027;-72
2023/03/12 12:21:59;;;;;;;;;;;3.70;99.90;;;;;;4878493;29;19983;-72
2023/03/12 12:24:48;;;;;;;;;;;3.70;99.90;;;;;;4861632;29;19979;-72
2023/03/12 12:27:19;;;;;;;;;;;3.80;99.90;;;;;;4841190;29;19927;-73
2023/03/12 12:30:03;;;;;;;;;;;3.90;99.90;;;;;;4845766;29;19928;-72
2023/03/12 12:32:29;;;;;;;;;;;3.90;99.90;;;;;;4843481;29;19931;-72
2023/03/12 12:35:13;;;;;;;;;;;4.00;99.90;;;;;;4858789;29;19928;-74
2023/03/12 12:37:38;;;;;;;;;;;4.20;99.90;;;;;;4859996;29;19928;-72
2023/03/12 12:40:22;;;;;;;;;;;4.20;99.90;;;;;;4848057;29;20336;-72
2023/03/12 12:42:50;;;;;;;;;;;4.30;99.90;;;;;;4864141;29;19950;-72
2023/03/12 12:45:17;;;;;;;;;;;4.50;99.90;;;;;;4849061;29;19990;-71
2023/03/12 12:47:47;;;;;;;;;;;4.50;99.90;;;;;;4880290;29;19928;-72
2023/03/12 12:50:15;;;;;;;;;;;4.60;99.90;;;;;;4880966;29;19934;-73
2023/03/12 12:52:41;;;;;;;;;;;4.70;99.90;;;;;;4863997;29;19935;-73
2023/03/12 12:55:09;;;;;;;;;;;4.90;99.90;;;;;;4880218;29;19928;-74
2023/03/12 12:57:41;;;;;;;;;;;4.90;99.90;;;;;;4877410;29;19928;-73
2023/03/12 13:00:22;;;;;;;;;;;5.00;99.90;;;;;;4879546;29;19924;-72
2023/03/12 13:02:48;;;;;;;;;;;5.20;99.90;;;;;;4862028;29;20236;-72
2023/03/12 13:05:39;;;;;;;;;;;5.30;99.90;;;;;;4862708;29;19923;-73
2023/03/12 13:08:07;;;;;;;;;;;5.40;99.90;;;;;;4861913;29;19924;-73
2023/03/12 13:10:33;;;;;;;;;;;5.40;99.90;;;;;;4880203;29;20452;-73
2023/03/12 13:13:18;;;;;;;;;;;5.60;99.90;;;;;;4863908;29;19927;-72
2023/03/12 13:15:45;;;;;;;;;;;5.60;99.90;;;;;;4863564;29;20019;-73
2023/03/12 13:18:16;;;;;;;;;;;5.70;99.90;;;;;;4864424;29;19932;-72
2023/03/12 13:20:42;;;;;;;;;;;5.70;99.90;;;;;;4862203;29;20015;-73
2023/03/12 13:23:10;;;;;;;;;;;5.80;99.90;;;;;;4863418;29;19982;-72
2023/03/12 13:25:44;;;;;;;;;;;5.90;99.90;;;;;;4880406;29;19954;-71
2023/03/12 13:28:25;;;;;;;;;;;5.90;99.90;;;;;;4861355;29;19928;-70
2023/03/12 13:30:51;;;;;;;;;;;6.00;99.90;;;;;;4860122;29;19962;-70
2023/03/12 13:33:20;;;;;;;;;;;6.10;99.90;;;;;;4845654;29;19970;-70
2023/03/12 13:36:15;;;;;;;;;;;6.20;99.90;;;;;;4861312;29;19971;-71
2023/03/12 13:39:00;;;;;;;;;;;6.30;99.90;;;;;;4838123;29;19951;-71
2023/03/12 13:41:39;;;;;;;;;;;6.30;99.90;;;;;;4863601;29;19932;-70
2023/03/12 13:44:24;;;;;;;;;;;6.40;99.90;;;;;;4864039;29;19928;-70
2023/03/12 13:47:03;;;;;;;;;;;6.60;99.90;;;;;;4862286;29;19928;-71
2023/03/12 13:49:52;;;;;;;;;;;6.60;99.90;;;;;;4879583;29;19928;-69
2023/03/12 13:52:30;;;;;;;;;;;6.70;99.90;;;;;;4842659;29;19928;-73
2023/03/12 13:54:59;;;;;;;;;;;6.80;99.90;;;;;;4848393;29;19979;-72
2023/03/12 13:57:25;;;;;;;;;;;6.80;99.90;;;;;;4863081;29;19928;-73
2023/03/12 13:59:51;;;;;;;;;;;6.90;99.90;;;;;;4862927;29;19954;-72
2023/03/12 14:02:23;;;;;;;;;;;6.90;99.90;;;;;;4847618;29;19935;-72
2023/03/12 14:04:48;;;;;;;;;;;7.00;99.90;;;;;;4847711;29;20293;-72
2023/03/12 14:07:33;;;;;;;;;;;7.10;99.90;;;;;;4880006;29;19958;-78
2023/03/12 14:10:17;;;;;;;;;;;7.10;99.90;;;;;;4863019;29;19959;-76
2023/03/12 14:12:58;;;;;;;;;;;7.10;99.90;;;;;;4863594;29;19928;-72
2023/03/12 14:15:28;;;;;;;;;;;7.30;99.90;;;;;;4880309;29;19976;-73
2023/03/12 14:18:01;;;;;;;;;;;7.20;99.90;;;;;;4863046;29;20079;-74
2023/03/12 14:20:27;;;;;;;;;;;7.30;99.90;;;;;;4863421;29;19928;-73
2023/03/12 14:23:04;;;;;;;;;;;7.40;99.90;;;;;;4866160;29;19928;-73
2023/03/12 14:25:35;;;;;;;;;;;7.50;99.90;;;;;;4866357;29;19939;-73
2023/03/12 14:28:02;;;;;;;;;;;7.50;99.90;;;;;;4863171;29;20379;-73
2023/03/12 14:30:54;;;;;;;;;;;7.60;99.90;;;;;;4879789;29;20023;-74
2023/03/12 14:33:20;;;;;;;;;;;7.70;99.90;;;;;;4845856;29;19931;-72
2023/03/12 14:35:50;;;;;;;;;;;7.70;99.90;;;;;;4863294;29;20027;-71
2023/03/12 14:38:20;;;;;;;;;;;7.70;99.90;;;;;;4862745;29;20296;-70